sensor_id;sensor_type;location;lat;lon;timestamp;P1;durP1;ratioP1;P2;durP2;ratioP2
335;SDS011;156;48.738;9.228;2023-05-07T00:00:24;0.50;;;0.30;;
335;SDS011;156;48.738;9.228;2023-05-07T00:02:51;0.50;;;0.30;;
335;SDS011;156;48.738;9.228;2023-05-07T00:05:18;0.50;;;0.30;;
335;SDS011;156;48.738;9.228;2023-05-07T00:07:46;0.50;;;0.30;;
335;SDS011;156;48.738;9.228;2023-05-07T00:10:14;0.50;;;0.30;;
335;SDS011;156;48.738;9.228;2023-05-07T00:12:41;0.50;;;0.30;;
335;SDS011;156;48.738;9.228;2023-05-07T00:15:08;0.50;;;0.30;;
335;SDS011;156;48.738;9.228;2023-05-07T00:17:35;0.50;;;0.30;;
335;SDS011;156;48.738;9.228;2023-05-07T00:20:03;0.50;;;0.30;;
335;SDS011;156;48.738;9.228;2023-05-07T00:22:33;1.83;;;1.73;;
335;SDS011;156;48.738;9.228;2023-05-07T00:25:00;0.68;;;0.68;;
335;SDS011;156;48.738;9.228;2023-05-07T00:27:28;0.50;;;0.30;;
335;SDS011;156;48.738;9.228;2023-05-07T00:29:58;0.50;;;0.40;;
335;SDS011;156;48.738;9.228;2023-05-07T00:32:25;0.50;;;0.30;;
335;SDS011;156;48.738;9.228;2023-05-07T00:34:52;0.50;;;0.30;;
335;SDS011;156;48.738;9.228;2023-05-07T00:37:19;0.50;;;0.30;;
335;SDS011;156;48.738;9.228;2023-05-07T00:39:46;0.50;;;0.30;;
335;SDS011;156;48.738;9.228;2023-05-07T00:42:14;0.93;;;0.82;;
335;SDS011;156;48.738;9.228;2023-05-07T00:44:42;0.60;;;0.50;;
335;SDS011;156;48.738;9.228;2023-05-07T00:47:09;1.30;;;0.70;;
335;SDS011;156;48.738;9.228;2023-05-07T00:49:38;0.50;;;0.40;;
335;SDS011;156;48.738;9.228;2023-05-07T00:52:07;0.50;;;0.40;;
335;SDS011;156;48.738;9.228;2023-05-07T00:54:37;0.50;;;0.30;;
335;SDS011;156;48.738;9.228;2023-05-07T00:57:04;4.53;;;1.20;;
335;SDS011;156;48.738;9.228;2023-05-07T00:59:32;0.50;;;0.30;;
335;SDS011;156;48.738;9.228;2023-05-07T01:02:01;0.50;;;0.30;;
335;SDS011;156;48.738;9.228;2023-05-07T01:04:28;0.50;;;0.30;;
335;SDS011;156;48.738;9.228;2023-05-07T01:06:55;0.50;;;0.30;;
335;SDS011;156;48.738;9.228;2023-05-07T01:09:24;0.50;;;0.30;;
335;SDS011;156;48.738;9.228;2023-05-07T01:11:51;0.50;;;0.30;;
335;SDS011;156;48.738;9.228;2023-05-07T01:14:19;0.50;;;0.30;;
335;SDS011;156;48.738;9.228;2023-05-07T01:16:47;0.50;;;0.30;;
335;SDS011;156;48.738;9.228;2023-05-07T01:19:17;0.50;;;0.30;;
335;SDS011;156;48.738;9.228;2023-05-07T01:21:46;0.50;;;0.30;;
335;SDS011;156;48.738;9.228;2023-05-07T01:24:15;0.50;;;0.30;;
335;SDS011;156;48.738;9.228;2023-05-07T01:26:42;0.50;;;0.30;;
335;SDS011;156;48.738;9.228;2023-05-07T01:29:10;0.50;;;0.30;;
335;SDS011;156;48.738;9.228;2023-05-07T01:31:37;0.50;;;0.30;;
335;SDS011;156;48.738;9.228;2023-05-07T01:34:06;0.50;;;0.30;;
335;SDS011;156;48.738;9.228;2023-05-07T01:36:36;0.50;;;0.30;;
335;SDS011;156;48.738;9.228;2023-05-07T01:39:05;0.50;;;0.30;;
335;SDS011;156;48.738;9.228;2023-05-07T01:41:34;0.50;;;0.30;;
335;SDS011;156;48.738;9.228;2023-05-07T01:44:01;0.50;;;0.30;;
335;SDS011;156;48.738;9.228;2023-05-07T01:46:30;0.50;;;0.30;;
335;SDS011;156;48.738;9.228;2023-05-07T01:48:58;0.50;;;0.30;;
335;SDS011;156;48.738;9.228;2023-05-07T01:51:26;0.50;;;0.30;;
335;SDS011;156;48.738;9.228;2023-05-07T01:53:53;0.50;;;0.30;;
335;SDS011;156;48.738;9.228;2023-05-07T01:56:20;0.50;;;0.30;;
335;SDS011;156;48.738;9.228;2023-05-07T01:58:48;0.50;;;0.30;;
335;SDS011;156;48.738;9.228;2023-05-07T02:01:17;0.50;;;0.30;;
335;SDS011;156;48.738;9.228;2023-05-07T02:03:44;0.50;;;0.30;;
335;SDS011;156;48.738;9.228;2023-05-07T02:06:11;0.50;;;0.30;;
335;SDS011;156;48.738;9.228;2023-05-07T02:08:38;0.50;;;0.30;;
335;SDS011;156;48.738;9.228;2023-05-07T02:11:05;0.50;;;0.30;;
335;SDS011;156;48.738;9.228;2023-05-07T02:13:32;0.50;;;0.30;;
335;SDS011;156;48.738;9.228;2023-05-07T02:16:01;0.50;;;0.30;;
335;SDS011;156;48.738;9.228;2023-05-07T02:18:28;0.50;;;0.30;;
335;SDS011;156;48.738;9.228;2023-05-07T02:20:55;0.50;;;0.30;;
335;SDS011;156;48.738;9.228;2023-05-07T02:23:22;0.50;;;0.30;;
335;SDS011;156;48.738;9.228;2023-05-07T02:25:49;0.50;;;0.30;;
335;SDS011;156;48.738;9.228;2023-05-07T02:28:17;0.50;;;0.30;;
335;SDS011;156;48.738;9.228;2023-05-07T02:30:44;0.50;;;0.30;;
335;SDS011;156;48.738;9.228;2023-05-07T02:33:12;0.50;;;0.30;;
335;SDS011;156;48.738;9.228;2023-05-07T02:35:39;0.50;;;0.30;;
335;SDS011;156;48.738;9.228;2023-05-07T02:38:06;0.50;;;0.30;;
335;SDS011;156;48.738;9.228;2023-05-07T02:40:35;0.50;;;0.30;;
335;SDS011;156;48.738;9.228;2023-05-07T02:43:03;0.50;;;0.30;;
335;SDS011;156;48.738;9.228;2023-05-07T02:45:31;0.50;;;0.30;;
335;SDS011;156;48.738;9.228;2023-05-07T02:47:58;0.50;;;0.30;;
335;SDS011;156;48.738;9.228;2023-05-07T02:50:26;0.50;;;0.30;;
335;SDS011;156;48.738;9.228;2023-05-07T02:52:53;0.50;;;0.30;;
335;SDS011;156;48.738;9.228;2023-05-07T02:55:20;0.50;;;0.30;;
335;SDS011;156;48.738;9.228;2023-05-07T02:57:48;0.50;;;0.30;;
335;SDS011;156;48.738;9.228;2023-05-07T03:00:15;0.50;;;0.30;;
335;SDS011;156;48.738;9.228;2023-05-07T03:02:46;0.50;;;0.30;;
335;SDS011;156;48.738;9.228;2023-05-07T03:05:13;0.50;;;0.30;;
335;SDS011;156;48.738;9.228;2023-05-07T03:07:42;0.50;;;0.30;;
335;SDS011;156;48.738;9.228;2023-05-07T03:10:11;0.50;;;0.30;;
335;SDS011;156;48.738;9.228;2023-05-07T03:12:38;0.50;;;0.30;;
335;SDS011;156;48.738;9.228;2023-05-07T03:15:05;0.50;;;0.30;;
335;SDS011;156;48.738;9.228;2023-05-07T03:17:33;0.50;;;0.30;;
335;SDS011;156;48.738;9.228;2023-05-07T03:20:00;0.50;;;0.30;;
335;SDS011;156;48.738;9.228;2023-05-07T03:22:27;0.50;;;0.30;;
335;SDS011;156;48.738;9.228;2023-05-07T03:24:55;0.50;;;0.30;;
335;SDS011;156;48.738;9.228;2023-05-07T03:27:22;0.50;;;0.30;;
335;SDS011;156;48.738;9.228;2023-05-07T03:29:49;0.50;;;0.30;;
335;SDS011;156;48.738;9.228;2023-05-07T03:32:16;0.50;;;0.30;;
335;SDS011;156;48.738;9.228;2023-05-07T03:34:43;0.50;;;0.30;;
335;SDS011;156;48.738;9.228;2023-05-07T03:37:10;0.50;;;0.30;;
335;SDS011;156;48.738;9.228;2023-05-07T03:39:37;0.50;;;0.30;;
335;SDS011;156;48.738;9.228;2023-05-07T03:42:05;0.50;;;0.30;;
335;SDS011;156;48.738;9.228;2023-05-07T03:44:32;0.50;;;0.40;;
335;SDS011;156;48.738;9.228;2023-05-07T03:47:01;0.50;;;0.43;;
335;SDS011;156;48.738;9.228;2023-05-07T03:49:28;0.50;;;0.40;;
335;SDS011;156;48.738;9.228;2023-05-07T03:51:55;0.50;;;0.40;;
335;SDS011;156;48.738;9.228;2023-05-07T03:54:22;0.50;;;0.40;;
335;SDS011;156;48.738;9.228;2023-05-07T03:56:48;0.50;;;0.40;;
335;SDS011;156;48.738;9.228;2023-05-07T03:59:17;0.50;;;0.40;;
335;SDS011;156;48.738;9.228;2023-05-07T04:01:44;0.50;;;0.30;;
335;SDS011;156;48.738;9.228;2023-05-07T04:04:10;0.50;;;0.30;;
335;SDS011;156;48.738;9.228;2023-05-07T04:06:37;0.50;;;0.30;;
335;SDS011;156;48.738;9.228;2023-05-07T04:09:04;0.50;;;0.30;;
335;SDS011;156;48.738;9.228;2023-05-07T04:11:31;0.50;;;0.30;;
335;SDS011;156;48.738;9.228;2023-05-07T04:13:58;0.50;;;0.30;;
335;SDS011;156;48.738;9.228;2023-05-07T04:16:27;0.50;;;0.30;;
335;SDS011;156;48.738;9.228;2023-05-07T04:18:53;0.50;;;0.30;;
335;SDS011;156;48.738;9.228;2023-05-07T04:21:20;0.50;;;0.40;;
335;SDS011;156;48.738;9.228;2023-05-07T04:23:47;0.50;;;0.40;;
335;SDS011;156;48.738;9.228;2023-05-07T04:26:15;0.50;;;0.40;;
335;SDS011;156;48.738;9.228;2023-05-07T04:28:42;0.50;;;0.40;;
335;SDS011;156;48.738;9.228;2023-05-07T04:31:09;0.50;;;0.40;;
335;SDS011;156;48.738;9.228;2023-05-07T04:33:38;0.50;;;0.40;;
335;SDS011;156;48.738;9.228;2023-05-07T04:36:05;0.50;;;0.40;;
335;SDS011;156;48.738;9.228;2023-05-07T04:38:32;0.50;;;0.40;;
335;SDS011;156;48.738;9.228;2023-05-07T04:41:02;0.50;;;0.40;;
335;SDS011;156;48.738;9.228;2023-05-07T04:43:30;0.50;;;0.40;;
335;SDS011;156;48.738;9.228;2023-05-07T04:45:57;0.50;;;0.40;;
335;SDS011;156;48.738;9.228;2023-05-07T04:48:24;0.50;;;0.40;;
335;SDS011;156;48.738;9.228;2023-05-07T04:50:52;0.50;;;0.40;;
335;SDS011;156;48.738;9.228;2023-05-07T04:53:22;0.50;;;0.40;;
335;SDS011;156;48.738;9.228;2023-05-07T04:55:54;0.50;;;0.40;;
335;SDS011;156;48.738;9.228;2023-05-07T04:58:21;0.50;;;0.40;;
335;SDS011;156;48.738;9.228;2023-05-07T05:00:51;0.50;;;0.40;;
335;SDS011;156;48.738;9.228;2023-05-07T05:03:18;0.50;;;0.40;;
335;SDS011;156;48.738;9.228;2023-05-07T05:05:44;0.50;;;0.40;;
335;SDS011;156;48.738;9.228;2023-05-07T05:08:13;0.50;;;0.50;;
335;SDS011;156;48.738;9.228;2023-05-07T05:10:40;0.70;;;0.60;;
335;SDS011;156;48.738;9.228;2023-05-07T05:13:08;1.23;;;1.13;;
335;SDS011;156;48.738;9.228;2023-05-07T05:15:37;1.63;;;1.52;;
335;SDS011;156;48.738;9.228;2023-05-07T05:18:04;1.48;;;1.38;;
335;SDS011;156;48.738;9.228;2023-05-07T05:20:31;0.50;;;0.50;;
335;SDS011;156;48.738;9.228;2023-05-07T05:22:58;0.50;;;0.40;;
335;SDS011;156;48.738;9.228;2023-05-07T05:25:26;0.50;;;0.40;;
335;SDS011;156;48.738;9.228;2023-05-07T05:27:53;0.50;;;0.30;;
335;SDS011;156;48.738;9.228;2023-05-07T05:30:20;0.85;;;0.75;;
335;SDS011;156;48.738;9.228;2023-05-07T05:32:47;0.50;;;0.40;;
335;SDS011;156;48.738;9.228;2023-05-07T05:35:14;0.50;;;0.30;;
335;SDS011;156;48.738;9.228;2023-05-07T05:37:41;0.50;;;0.30;;
335;SDS011;156;48.738;9.228;2023-05-07T05:40:08;1.35;;;1.27;;
335;SDS011;156;48.738;9.228;2023-05-07T05:42:37;3.22;;;2.45;;
335;SDS011;156;48.738;9.228;2023-05-07T05:45:04;0.50;;;0.30;;
335;SDS011;156;48.738;9.228;2023-05-07T05:47:32;1.77;;;1.63;;
335;SDS011;156;48.738;9.228;2023-05-07T05:49:59;0.50;;;0.30;;
335;SDS011;156;48.738;9.228;2023-05-07T05:52:26;0.50;;;0.30;;
335;SDS011;156;48.738;9.228;2023-05-07T05:54:53;0.50;;;0.40;;
335;SDS011;156;48.738;9.228;2023-05-07T05:57:20;0.50;;;0.30;;
335;SDS011;156;48.738;9.228;2023-05-07T05:59:48;0.50;;;0.30;;
335;SDS011;156;48.738;9.228;2023-05-07T06:02:15;0.50;;;0.30;;
335;SDS011;156;48.738;9.228;2023-05-07T06:04:42;0.50;;;0.40;;
335;SDS011;156;48.738;9.228;2023-05-07T06:07:09;0.50;;;0.50;;
335;SDS011;156;48.738;9.228;2023-05-07T06:09:36;1.52;;;1.42;;
335;SDS011;156;48.738;9.228;2023-05-07T06:12:03;0.60;;;0.40;;
335;SDS011;156;48.738;9.228;2023-05-07T06:14:30;0.70;;;0.70;;
335;SDS011;156;48.738;9.228;2023-05-07T06:16:58;0.60;;;0.52;;
335;SDS011;156;48.738;9.228;2023-05-07T06:19:25;0.50;;;0.30;;
335;SDS011;156;48.738;9.228;2023-05-07T06:21:53;0.90;;;0.77;;
335;SDS011;156;48.738;9.228;2023-05-07T06:24:21;1.10;;;0.98;;
335;SDS011;156;48.738;9.228;2023-05-07T06:26:49;0.50;;;0.30;;
335;SDS011;156;48.738;9.228;2023-05-07T06:29:19;1.48;;;1.38;;
335;SDS011;156;48.738;9.228;2023-05-07T06:31:45;0.50;;;0.30;;
335;SDS011;156;48.738;9.228;2023-05-07T06:34:14;0.50;;;0.30;;
335;SDS011;156;48.738;9.228;2023-05-07T06:36:41;1.08;;;0.52;;
335;SDS011;156;48.738;9.228;2023-05-07T06:39:07;0.50;;;0.30;;
335;SDS011;156;48.738;9.228;2023-05-07T06:41:34;0.50;;;0.30;;
335;SDS011;156;48.738;9.228;2023-05-07T06:44:02;0.50;;;0.30;;
335;SDS011;156;48.738;9.228;2023-05-07T06:46:29;0.50;;;0.30;;
335;SDS011;156;48.738;9.228;2023-05-07T06:48:57;0.50;;;0.40;;
335;SDS011;156;48.738;9.228;2023-05-07T06:51:25;0.60;;;0.50;;
335;SDS011;156;48.738;9.228;2023-05-07T06:53:52;0.50;;;0.40;;
335;SDS011;156;48.738;9.228;2023-05-07T06:56:19;0.50;;;0.30;;
335;SDS011;156;48.738;9.228;2023-05-07T06:58:46;0.50;;;0.30;;
335;SDS011;156;48.738;9.228;2023-05-07T07:01:13;1.08;;;0.75;;
335;SDS011;156;48.738;9.228;2023-05-07T07:03:40;0.70;;;0.68;;
335;SDS011;156;48.738;9.228;2023-05-07T07:06:07;0.50;;;0.30;;
335;SDS011;156;48.738;9.228;2023-05-07T07:08:37;0.50;;;0.30;;
335;SDS011;156;48.738;9.228;2023-05-07T07:11:04;3.63;;;1.02;;
335;SDS011;156;48.738;9.228;2023-05-07T07:13:31;0.50;;;0.30;;
335;SDS011;156;48.738;9.228;2023-05-07T07:15:58;0.50;;;0.30;;
335;SDS011;156;48.738;9.228;2023-05-07T07:18:26;0.50;;;0.30;;
335;SDS011;156;48.738;9.228;2023-05-07T07:20:53;0.60;;;0.50;;
335;SDS011;156;48.738;9.228;2023-05-07T07:23:20;1.17;;;0.73;;
335;SDS011;156;48.738;9.228;2023-05-07T07:25:48;1.85;;;1.75;;
335;SDS011;156;48.738;9.228;2023-05-07T07:28:15;3.08;;;2.08;;
335;SDS011;156;48.738;9.228;2023-05-07T07:30:43;1.42;;;1.33;;
335;SDS011;156;48.738;9.228;2023-05-07T07:33:10;0.50;;;0.30;;
335;SDS011;156;48.738;9.228;2023-05-07T07:35:36;0.50;;;0.35;;
335;SDS011;156;48.738;9.228;2023-05-07T07:38:03;1.45;;;0.98;;
335;SDS011;156;48.738;9.228;2023-05-07T07:40:30;1.35;;;1.10;;
335;SDS011;156;48.738;9.228;2023-05-07T07:42:59;0.50;;;0.30;;
335;SDS011;156;48.738;9.228;2023-05-07T07:45:26;1.20;;;1.13;;
335;SDS011;156;48.738;9.228;2023-05-07T07:47:53;0.50;;;0.30;;
335;SDS011;156;48.738;9.228;2023-05-07T07:50:20;1.40;;;1.13;;
335;SDS011;156;48.738;9.228;2023-05-07T07:52:47;0.50;;;0.30;;
335;SDS011;156;48.738;9.228;2023-05-07T07:55:15;0.50;;;0.30;;
335;SDS011;156;48.738;9.228;2023-05-07T07:57:46;2.35;;;2.15;;
335;SDS011;156;48.738;9.228;2023-05-07T08:00:15;0.50;;;0.30;;
335;SDS011;156;48.738;9.228;2023-05-07T08:02:42;0.50;;;0.30;;
335;SDS011;156;48.738;9.228;2023-05-07T08:05:09;0.50;;;0.30;;
335;SDS011;156;48.738;9.228;2023-05-07T08:07:36;2.78;;;2.30;;
335;SDS011;156;48.738;9.228;2023-05-07T08:10:04;0.50;;;0.30;;
335;SDS011;156;48.738;9.228;2023-05-07T08:12:31;0.50;;;0.30;;
335;SDS011;156;48.738;9.228;2023-05-07T08:14:58;0.60;;;0.52;;
335;SDS011;156;48.738;9.228;2023-05-07T08:17:29;0.50;;;0.30;;
335;SDS011;156;48.738;9.228;2023-05-07T08:19:56;0.50;;;0.30;;
335;SDS011;156;48.738;9.228;2023-05-07T08:22:23;2.28;;;1.90;;
335;SDS011;156;48.738;9.228;2023-05-07T08:24:49;1.70;;;1.50;;
335;SDS011;156;48.738;9.228;2023-05-07T08:27:18;0.50;;;0.30;;
335;SDS011;156;48.738;9.228;2023-05-07T08:29:45;0.50;;;0.40;;
335;SDS011;156;48.738;9.228;2023-05-07T08:32:13;0.60;;;0.40;;
335;SDS011;156;48.738;9.228;2023-05-07T08:34:41;0.60;;;0.60;;
335;SDS011;156;48.738;9.228;2023-05-07T08:37:08;1.00;;;0.93;;
335;SDS011;156;48.738;9.228;2023-05-07T08:39:35;0.60;;;0.50;;
335;SDS011;156;48.738;9.228;2023-05-07T08:42:02;1.27;;;1.17;;
335;SDS011;156;48.738;9.228;2023-05-07T08:44:32;2.35;;;2.15;;
335;SDS011;156;48.738;9.228;2023-05-07T08:47:00;0.88;;;0.77;;
335;SDS011;156;48.738;9.228;2023-05-07T08:49:28;0.68;;;0.50;;
335;SDS011;156;48.738;9.228;2023-05-07T08:51:56;2.35;;;2.25;;
335;SDS011;156;48.738;9.228;2023-05-07T08:54:23;0.50;;;0.30;;
335;SDS011;156;48.738;9.228;2023-05-07T08:56:52;0.50;;;0.40;;
335;SDS011;156;48.738;9.228;2023-05-07T08:59:19;0.50;;;0.30;;
335;SDS011;156;48.738;9.228;2023-05-07T09:01:47;0.75;;;0.73;;
335;SDS011;156;48.738;9.228;2023-05-07T09:04:16;0.60;;;0.50;;
335;SDS011;156;48.738;9.228;2023-05-07T09:06:45;2.20;;;2.03;;
335;SDS011;156;48.738;9.228;2023-05-07T09:09:15;0.50;;;0.30;;
335;SDS011;156;48.738;9.228;2023-05-07T09:11:46;0.60;;;0.60;;
335;SDS011;156;48.738;9.228;2023-05-07T09:14:13;1.33;;;1.23;;
335;SDS011;156;48.738;9.228;2023-05-07T09:16:40;0.60;;;0.47;;
335;SDS011;156;48.738;9.228;2023-05-07T09:19:07;1.98;;;1.85;;
335;SDS011;156;48.738;9.228;2023-05-07T09:21:34;0.60;;;0.55;;
335;SDS011;156;48.738;9.228;2023-05-07T09:24:01;6.07;;;1.42;;
335;SDS011;156;48.738;9.228;2023-05-07T09:26:30;0.50;;;0.30;;
335;SDS011;156;48.738;9.228;2023-05-07T09:28:58;0.50;;;0.40;;
335;SDS011;156;48.738;9.228;2023-05-07T09:31:25;0.50;;;0.30;;
335;SDS011;156;48.738;9.228;2023-05-07T09:33:52;0.50;;;0.30;;
335;SDS011;156;48.738;9.228;2023-05-07T09:36:20;1.98;;;1.88;;
335;SDS011;156;48.738;9.228;2023-05-07T09:38:47;0.50;;;0.30;;
335;SDS011;156;48.738;9.228;2023-05-07T09:41:18;2.30;;;2.10;;
335;SDS011;156;48.738;9.228;2023-05-07T09:43:47;0.50;;;0.30;;
335;SDS011;156;48.738;9.228;2023-05-07T09:46:20;1.10;;;0.93;;
335;SDS011;156;48.738;9.228;2023-05-07T09:48:53;1.67;;;0.90;;
335;SDS011;156;48.738;9.228;2023-05-07T09:51:24;0.50;;;0.30;;
335;SDS011;156;48.738;9.228;2023-05-07T09:53:56;0.50;;;0.30;;
335;SDS011;156;48.738;9.228;2023-05-07T09:56:26;1.98;;;1.85;;
335;SDS011;156;48.738;9.228;2023-05-07T09:58:55;0.50;;;0.30;;
335;SDS011;156;48.738;9.228;2023-05-07T10:01:23;1.67;;;0.50;;
335;SDS011;156;48.738;9.228;2023-05-07T10:03:52;0.73;;;0.35;;
335;SDS011;156;48.738;9.228;2023-05-07T10:06:20;0.50;;;0.30;;
335;SDS011;156;48.738;9.228;2023-05-07T10:08:48;0.50;;;0.30;;
335;SDS011;156;48.738;9.228;2023-05-07T10:11:16;1.40;;;1.27;;
335;SDS011;156;48.738;9.228;2023-05-07T10:13:43;0.70;;;0.63;;
335;SDS011;156;48.738;9.228;2023-05-07T10:16:13;0.85;;;0.50;;
335;SDS011;156;48.738;9.228;2023-05-07T10:18:41;1.00;;;0.88;;
335;SDS011;156;48.738;9.228;2023-05-07T10:21:11;0.50;;;0.30;;
335;SDS011;156;48.738;9.228;2023-05-07T10:23:42;0.60;;;0.40;;
335;SDS011;156;48.738;9.228;2023-05-07T10:26:11;2.75;;;2.55;;
335;SDS011;156;48.738;9.228;2023-05-07T10:28:41;0.50;;;0.40;;
335;SDS011;156;48.738;9.228;2023-05-07T10:31:23;0.50;;;0.40;;
335;SDS011;156;48.738;9.228;2023-05-07T10:34:09;0.50;;;0.30;;
335;SDS011;156;48.738;9.228;2023-05-07T10:36:38;0.60;;;0.50;;
335;SDS011;156;48.738;9.228;2023-05-07T10:39:05;0.73;;;0.73;;
335;SDS011;156;48.738;9.228;2023-05-07T10:41:33;0.50;;;0.30;;
335;SDS011;156;48.738;9.228;2023-05-07T10:44:01;0.90;;;0.70;;
335;SDS011;156;48.738;9.228;2023-05-07T10:46:33;4.07;;;1.67;;
335;SDS011;156;48.738;9.228;2023-05-07T10:49:06;0.80;;;0.70;;
335;SDS011;156;48.738;9.228;2023-05-07T10:51:36;0.63;;;0.57;;
335;SDS011;156;48.738;9.228;2023-05-07T10:54:22;0.50;;;0.40;;
335;SDS011;156;48.738;9.228;2023-05-07T10:56:52;0.73;;;0.68;;
335;SDS011;156;48.738;9.228;2023-05-07T10:59:33;0.80;;;0.80;;
335;SDS011;156;48.738;9.228;2023-05-07T11:02:09;4.70;;;1.95;;
335;SDS011;156;48.738;9.228;2023-05-07T11:04:39;1.30;;;1.20;;
335;SDS011;156;48.738;9.228;2023-05-07T11:07:21;0.50;;;0.30;;
335;SDS011;156;48.738;9.228;2023-05-07T11:09:54;0.85;;;0.75;;
335;SDS011;156;48.738;9.228;2023-05-07T11:12:48;0.50;;;0.38;;
335;SDS011;156;48.738;9.228;2023-05-07T11:15:34;0.80;;;0.60;;
335;SDS011;156;48.738;9.228;2023-05-07T11:18:12;0.75;;;0.68;;
335;SDS011;156;48.738;9.228;2023-05-07T11:20:50;0.50;;;0.30;;
335;SDS011;156;48.738;9.228;2023-05-07T11:26:24;0.55;;;0.47;;
335;SDS011;156;48.738;9.228;2023-05-07T11:28:52;2.38;;;2.17;;
335;SDS011;156;48.738;9.228;2023-05-07T11:31:20;0.50;;;0.47;;
335;SDS011;156;48.738;9.228;2023-05-07T11:33:50;0.80;;;0.70;;
335;SDS011;156;48.738;9.228;2023-05-07T11:36:18;1.35;;;1.02;;
335;SDS011;156;48.738;9.228;2023-05-07T11:38:46;0.85;;;0.75;;
335;SDS011;156;48.738;9.228;2023-05-07T11:41:13;1.15;;;1.05;;
335;SDS011;156;48.738;9.228;2023-05-07T11:43:55;1.25;;;1.15;;
335;SDS011;156;48.738;9.228;2023-05-07T11:46:23;0.73;;;0.60;;
335;SDS011;156;48.738;9.228;2023-05-07T11:48:51;1.05;;;0.70;;
335;SDS011;156;48.738;9.228;2023-05-07T11:51:19;0.60;;;0.60;;
335;SDS011;156;48.738;9.228;2023-05-07T11:53:46;0.50;;;0.30;;
335;SDS011;156;48.738;9.228;2023-05-07T11:56:14;2.65;;;1.95;;
335;SDS011;156;48.738;9.228;2023-05-07T11:58:42;0.50;;;0.40;;
335;SDS011;156;48.738;9.228;2023-05-07T12:01:11;1.80;;;1.70;;
335;SDS011;156;48.738;9.228;2023-05-07T12:03:39;0.50;;;0.38;;
335;SDS011;156;48.738;9.228;2023-05-07T12:06:10;0.90;;;0.80;;
335;SDS011;156;48.738;9.228;2023-05-07T12:08:37;0.50;;;0.30;;
335;SDS011;156;48.738;9.228;2023-05-07T12:11:09;0.50;;;0.38;;
335;SDS011;156;48.738;9.228;2023-05-07T12:13:40;0.93;;;0.82;;
335;SDS011;156;48.738;9.228;2023-05-07T12:16:07;1.13;;;1.05;;
335;SDS011;156;48.738;9.228;2023-05-07T12:18:37;1.77;;;1.67;;
335;SDS011;156;48.738;9.228;2023-05-07T12:21:04;21.75;;;3.83;;
335;SDS011;156;48.738;9.228;2023-05-07T12:23:34;2.85;;;2.60;;
335;SDS011;156;48.738;9.228;2023-05-07T12:26:02;0.90;;;0.80;;
335;SDS011;156;48.738;9.228;2023-05-07T12:28:30;0.50;;;0.32;;
335;SDS011;156;48.738;9.228;2023-05-07T12:31:03;0.50;;;0.30;;
335;SDS011;156;48.738;9.228;2023-05-07T12:33:30;1.40;;;1.30;;
335;SDS011;156;48.738;9.228;2023-05-07T12:35:58;2.72;;;2.53;;
335;SDS011;156;48.738;9.228;2023-05-07T12:38:32;1.42;;;1.25;;
335;SDS011;156;48.738;9.228;2023-05-07T12:41:02;2.50;;;1.45;;
335;SDS011;156;48.738;9.228;2023-05-07T12:43:30;2.90;;;2.05;;
335;SDS011;156;48.738;9.228;2023-05-07T12:45:59;5.43;;;3.58;;
335;SDS011;156;48.738;9.228;2023-05-07T12:48:27;2.72;;;2.42;;
335;SDS011;156;48.738;9.228;2023-05-07T12:50:55;1.73;;;1.65;;
335;SDS011;156;48.738;9.228;2023-05-07T12:53:23;1.88;;;1.20;;
335;SDS011;156;48.738;9.228;2023-05-07T12:55:52;1.42;;;0.95;;
335;SDS011;156;48.738;9.228;2023-05-07T12:58:23;1.38;;;1.35;;
335;SDS011;156;48.738;9.228;2023-05-07T13:00:51;1.73;;;0.98;;
335;SDS011;156;48.738;9.228;2023-05-07T13:03:22;1.00;;;0.60;;
335;SDS011;156;48.738;9.228;2023-05-07T13:05:54;3.75;;;1.63;;
335;SDS011;156;48.738;9.228;2023-05-07T13:08:25;1.10;;;1.05;;
335;SDS011;156;48.738;9.228;2023-05-07T13:10:58;5.07;;;4.78;;
335;SDS011;156;48.738;9.228;2023-05-07T13:13:29;4.15;;;3.08;;
335;SDS011;156;48.738;9.228;2023-05-07T13:15:56;5.50;;;5.20;;
335;SDS011;156;48.738;9.228;2023-05-07T13:18:24;9.63;;;9.13;;
335;SDS011;156;48.738;9.228;2023-05-07T13:20:51;11.38;;;10.77;;
335;SDS011;156;48.738;9.228;2023-05-07T13:23:18;9.90;;;9.40;;
335;SDS011;156;48.738;9.228;2023-05-07T13:25:45;8.60;;;8.10;;
335;SDS011;156;48.738;9.228;2023-05-07T13:28:14;7.30;;;6.90;;
335;SDS011;156;48.738;9.228;2023-05-07T13:30:41;5.93;;;5.63;;
335;SDS011;156;48.738;9.228;2023-05-07T13:33:08;8.45;;;7.97;;
335;SDS011;156;48.738;9.228;2023-05-07T13:35:35;5.22;;;4.93;;
335;SDS011;156;48.738;9.228;2023-05-07T13:38:02;5.15;;;4.85;;
335;SDS011;156;48.738;9.228;2023-05-07T13:40:29;13.18;;;6.18;;
335;SDS011;156;48.738;9.228;2023-05-07T13:42:57;3.15;;;2.95;;
335;SDS011;156;48.738;9.228;2023-05-07T13:45:27;2.60;;;2.40;;
335;SDS011;156;48.738;9.228;2023-05-07T13:47:54;3.58;;;3.38;;
335;SDS011;156;48.738;9.228;2023-05-07T13:50:22;2.40;;;2.20;;
335;SDS011;156;48.738;9.228;2023-05-07T13:52:49;5.10;;;4.80;;
335;SDS011;156;48.738;9.228;2023-05-07T13:55:16;3.47;;;3.28;;
335;SDS011;156;48.738;9.228;2023-05-07T13:57:44;3.25;;;3.05;;
335;SDS011;156;48.738;9.228;2023-05-07T14:00:11;3.72;;;3.53;;
335;SDS011;156;48.738;9.228;2023-05-07T14:02:40;3.75;;;3.55;;
335;SDS011;156;48.738;9.228;2023-05-07T14:05:09;2.80;;;2.60;;
335;SDS011;156;48.738;9.228;2023-05-07T14:07:38;3.35;;;3.15;;
335;SDS011;156;48.738;9.228;2023-05-07T14:10:05;4.70;;;4.40;;
335;SDS011;156;48.738;9.228;2023-05-07T14:12:33;3.40;;;3.20;;
335;SDS011;156;48.738;9.228;2023-05-07T14:15:00;2.70;;;2.50;;
335;SDS011;156;48.738;9.228;2023-05-07T14:17:27;2.30;;;2.10;;
335;SDS011;156;48.738;9.228;2023-05-07T14:19:57;2.03;;;1.90;;
335;SDS011;156;48.738;9.228;2023-05-07T14:22:24;2.50;;;2.30;;
335;SDS011;156;48.738;9.228;2023-05-07T14:24:51;2.45;;;2.25;;
335;SDS011;156;48.738;9.228;2023-05-07T14:27:19;3.85;;;2.20;;
335;SDS011;156;48.738;9.228;2023-05-07T14:29:46;3.20;;;2.47;;
335;SDS011;156;48.738;9.228;2023-05-07T14:32:16;2.05;;;1.83;;
335;SDS011;156;48.738;9.228;2023-05-07T14:34:43;2.75;;;2.55;;
335;SDS011;156;48.738;9.228;2023-05-07T14:37:11;2.33;;;2.13;;
335;SDS011;156;48.738;9.228;2023-05-07T14:39:38;1.67;;;1.58;;
335;SDS011;156;48.738;9.228;2023-05-07T14:42:06;2.95;;;2.33;;
335;SDS011;156;48.738;9.228;2023-05-07T14:44:33;1.80;;;1.70;;
335;SDS011;156;48.738;9.228;2023-05-07T14:47:00;1.85;;;1.75;;
335;SDS011;156;48.738;9.228;2023-05-07T14:49:27;1.95;;;0.90;;
335;SDS011;156;48.738;9.228;2023-05-07T14:51:56;3.58;;;2.08;;
335;SDS011;156;48.738;9.228;2023-05-07T14:54:25;0.55;;;0.52;;
335;SDS011;156;48.738;9.228;2023-05-07T14:56:52;2.42;;;2.22;;
335;SDS011;156;48.738;9.228;2023-05-07T14:59:19;0.50;;;0.50;;
335;SDS011;156;48.738;9.228;2023-05-07T15:01:47;1.15;;;1.15;;
335;SDS011;156;48.738;9.228;2023-05-07T15:04:14;0.85;;;0.75;;
335;SDS011;156;48.738;9.228;2023-05-07T15:06:41;0.70;;;0.60;;
335;SDS011;156;48.738;9.228;2023-05-07T15:09:08;0.70;;;0.60;;
335;SDS011;156;48.738;9.228;2023-05-07T15:11:36;0.80;;;0.70;;
335;SDS011;156;48.738;9.228;2023-05-07T15:14:03;0.70;;;0.60;;
335;SDS011;156;48.738;9.228;2023-05-07T15:16:30;0.80;;;0.70;;
335;SDS011;156;48.738;9.228;2023-05-07T15:18:57;0.80;;;0.70;;
335;SDS011;156;48.738;9.228;2023-05-07T15:21:24;1.83;;;1.73;;
335;SDS011;156;48.738;9.228;2023-05-07T15:23:52;1.00;;;0.90;;
335;SDS011;156;48.738;9.228;2023-05-07T15:26:18;1.20;;;1.10;;
335;SDS011;156;48.738;9.228;2023-05-07T15:28:48;1.20;;;1.10;;
335;SDS011;156;48.738;9.228;2023-05-07T15:31:15;1.20;;;1.10;;
335;SDS011;156;48.738;9.228;2023-05-07T15:33:42;1.50;;;1.40;;
335;SDS011;156;48.738;9.228;2023-05-07T15:36:12;3.92;;;3.72;;
335;SDS011;156;48.738;9.228;2023-05-07T15:38:39;9.63;;;9.10;;
335;SDS011;156;48.738;9.228;2023-05-07T15:41:06;1.60;;;1.50;;
335;SDS011;156;48.738;9.228;2023-05-07T15:43:35;5.75;;;5.45;;
335;SDS011;156;48.738;9.228;2023-05-07T15:46:11;3.00;;;2.80;;
335;SDS011;156;48.738;9.228;2023-05-07T15:48:43;8.75;;;2.35;;
335;SDS011;156;48.738;9.228;2023-05-07T15:51:13;1.92;;;1.80;;
335;SDS011;156;48.738;9.228;2023-05-07T15:53:40;3.28;;;2.33;;